Time;durP1;ratioP1;P1;durP2;ratioP2;P2;SDS_P1;SDS_P2;PMS_P1;PMS_P2;Temp;Humidity;BMP_temperature;BMP_pressure;BME280_temperature;BME280_humidity;BME280_pressure;Samples;Min_cycle;Max_cycle;Signal;HPM_P1;HPM_P2
2024/01/20 00:01:52;;;;;;;;;44.25;39.00;;;;;-3.63;84.66;99945.41;4867172;29;8972;-83
2024/01/20 00:04:21;;;;;;;;;40.00;36.00;;;;;-3.58;84.38;99932.75;4858316;29;9766;-81
2024/01/20 00:06:50;;;;;;;;;41.25;35.75;;;;;-3.70;84.11;99933.09;4859233;29;8887;-82
2024/01/20 00:09:19;;;;;;;;;39.00;33.75;;;;;-3.38;83.72;99938.72;4860950;29;8873;-85
2024/01/20 00:11:50;;;;;;;;;44.25;38.50;;;;;-3.69;84.10;99954.53;4861220;29;8904;-82
2024/01/20 00:14:20;;;;;;;;;31.25;29.75;;;;;-3.74;84.61;99963.72;4857800;29;8880;-82
2024/01/20 00:16:50;;;;;;;;;36.00;32.00;;;;;-3.66;83.94;99965.84;4859211;29;9055;-83
2024/01/20 00:19:20;;;;;;;;;43.75;34.75;;;;;-3.40;83.36;99980.59;4857619;29;8999;-82
2024/01/20 00:21:49;;;;;;;;;36.00;35.25;;;;;-3.49;83.73;99984.56;4858764;29;8908;-83
2024/01/20 00:24:18;;;;;;;;;38.00;31.00;;;;;-3.76;84.16;99983.34;4841848;29;8907;-82
2024/01/20 00:26:47;;;;;;;;;30.25;29.75;;;;;-3.29;82.89;99975.09;4858608;29;8969;-81
2024/01/20 00:29:16;;;;;;;;;50.50;40.50;;;;;-3.39;82.82;99983.25;4841772;29;8905;-80
2024/01/20 00:31:45;;;;;;;;;49.50;43.00;;;;;-3.12;81.45;99975.78;4857976;29;8892;-82
2024/01/20 00:34:16;;;;;;;;;40.00;38.50;;;;;-3.20;81.49;99976.31;4856362;29;8881;-82
2024/01/20 00:36:45;;;;;;;;;41.75;35.25;;;;;-3.76;82.71;99978.22;4795469;29;8881;-80
2024/01/20 00:39:14;;;;;;;;;45.50;38.75;;;;;-3.58;83.17;99972.97;4841730;29;8869;-81
2024/01/20 00:41:43;;;;;;;;;47.25;42.00;;;;;-3.49;82.23;99987.13;4857136;29;8857;-83
2024/01/20 00:44:12;;;;;;;;;39.75;35.00;;;;;-3.60;82.63;99993.50;4856852;29;9467;-80
2024/01/20 00:46:41;;;;;;;;;48.00;42.00;;;;;-3.53;82.70;100000.63;4873906;29;8889;-81
2024/01/20 00:49:10;;;;;;;;;38.00;34.00;;;;;-3.66;83.20;100000.91;4876621;29;8988;-82
2024/01/20 00:51:41;;;;;;;;;42.75;39.75;;;;;-3.72;83.28;100006.66;4855911;29;8932;-81
2024/01/20 00:54:10;;;;;;;;;38.75;36.25;;;;;-3.80;83.60;100007.16;4856722;29;9037;-81
2024/01/20 00:56:39;;;;;;;;;48.75;40.00;;;;;-3.83;83.14;99997.59;4855993;29;8882;-85
2024/01/20 00:59:09;;;;;;;;;38.25;33.50;;;;;-3.72;83.13;100010.91;4841769;29;8917;-81
2024/01/20 01:01:38;;;;;;;;;49.75;42.50;;;;;-3.73;83.56;100016.88;4830395;29;9645;-83
2024/01/20 01:04:07;;;;;;;;;44.00;38.00;;;;;-3.96;84.01;100029.56;4855681;29;8986;-83
2024/01/20 01:06:37;;;;;;;;;42.00;36.75;;;;;-3.97;84.04;100025.25;4824855;29;9061;-83
2024/01/20 01:09:08;;;;;;;;;41.75;39.50;;;;;-3.52;82.54;100012.69;4855796;29;9657;-82
2024/01/20 01:11:37;;;;;;;;;52.00;41.00;;;;;-3.80;83.55;100017.41;4856499;29;8894;-84
2024/01/20 01:14:06;;;;;;;;;44.75;38.00;;;;;-3.91;83.34;100029.78;4856724;29;9036;-83
2024/01/20 01:16:35;;;;;;;;;40.75;38.00;;;;;-3.66;83.32;100027.50;4850549;29;8873;-82
2024/01/20 01:19:04;;;;;;;;;41.00;36.75;;;;;-3.34;81.71;100027.13;4864302;29;9021;-82
2024/01/20 01:21:34;;;;;;;;;57.50;45.25;;;;;-3.42;81.63;100029.38;4801331;29;8898;-82
2024/01/20 01:24:03;;;;;;;;;53.75;48.50;;;;;-3.05;79.97;100018.94;4857862;29;8917;-86
2024/01/20 01:26:34;;;;;;;;;37.75;33.00;;;;;-3.10;79.95;100007.59;4845019;29;9010;-83
2024/01/20 01:29:03;;;;;;;;;45.00;38.25;;;;;-2.91;79.04;100016.06;4857151;29;8896;-82
2024/01/20 01:31:32;;;;;;;;;45.25;40.50;;;;;-2.67;78.29;100027.34;4860942;29;8896;-83
2024/01/20 01:34:01;;;;;;;;;41.75;35.50;;;;;-3.00;78.96;100028.53;4866320;29;8901;-84
2024/01/20 01:36:30;;;;;;;;;39.00;35.50;;;;;-2.79;78.77;100036.25;4865360;29;8881;-84
2024/01/20 01:38:59;;;;;;;;;48.50;44.75;;;;;-2.70;78.26;100032.38;4860714;29;8881;-84
2024/01/20 01:41:29;;;;;;;;;45.00;39.25;;;;;-3.21;78.65;100043.97;4829109;29;8904;-84
2024/01/20 01:44:00;;;;;;;;;44.50;42.00;;;;;-3.08;79.04;100046.22;4799313;29;8942;-84
2024/01/20 01:46:29;;;;;;;;;27.25;26.75;;;;;-3.31;79.74;100058.13;4853717;29;8967;-84
2024/01/20 01:48:58;;;;;;;;;36.75;32.75;;;;;-3.25;79.84;100056.66;4854190;29;8940;-83
2024/01/20 01:51:28;;;;;;;;;41.50;38.75;;;;;-2.93;77.47;100056.28;4839751;29;9634;-85
2024/01/20 01:53:59;;;;;;;;;32.25;27.25;;;;;-2.98;78.54;100056.06;4838336;29;8891;-82
2024/01/20 01:56:29;;;;;;;;;40.75;34.75;;;;;-3.30;78.41;100065.00;4843143;29;8883;-83
2024/01/20 01:58:59;;;;;;;;;36.00;34.50;;;;;-3.24;78.06;100062.72;4858022;29;8877;-82
2024/01/20 02:01:29;;;;;;;;;37.00;32.25;;;;;-3.30;77.97;100065.00;4858792;29;9076;-83
2024/01/20 02:03:59;;;;;;;;;39.25;38.00;;;;;-3.50;78.69;100064.16;4859516;29;8940;-84
2024/01/20 02:06:29;;;;;;;;;37.50;34.00;;;;;-3.39;78.34;100073.19;4859338;29;8957;-83
2024/01/20 02:08:59;;;;;;;;;39.50;35.75;;;;;-3.12;77.67;100073.50;4844453;29;9678;-82
2024/01/20 02:11:29;;;;;;;;;42.00;37.25;;;;;-3.23;78.34;100079.88;4859859;29;8876;-82
2024/01/20 02:14:00;;;;;;;;;40.25;36.25;;;;;-3.49;79.05;100083.88;4843122;29;8884;-84
2024/01/20 02:16:29;;;;;;;;;39.25;35.75;;;;;-3.42;79.05;100083.34;4845199;29;8885;-81
2024/01/20 02:19:02;;;;;;;;;43.25;35.00;;;;;-3.29;78.53;100082.19;4864728;29;8995;-81
2024/01/20 02:21:32;;;;;;;;;41.75;35.75;;;;;-3.52;79.07;100094.03;4866339;29;8924;-83
2024/01/20 02:24:06;;;;;;;;;33.25;30.50;;;;;-3.06;77.61;100101.19;4828122;29;8868;-83
2024/01/20 02:26:35;;;;;;;;;30.25;24.50;;;;;-3.05;76.55;100108.97;4860482;29;8865;-83
2024/01/20 02:29:04;;;;;;;;;34.00;30.75;;;;;-3.09;77.19;100108.75;4843591;29;8892;-82
2024/01/20 02:31:33;;;;;;;;;37.75;31.75;;;;;-3.09;76.49;100106.19;4843695;29;8990;-85
2024/01/20 02:34:02;;;;;;;;;42.25;37.50;;;;;-3.21;77.39;100109.09;4842949;29;9600;-81
2024/01/20 02:36:31;;;;;;;;;28.50;28.50;;;;;-2.56;76.00;100102.44;4843905;29;8854;-83
2024/01/20 02:39:02;;;;;;;;;43.25;36.75;;;;;-2.76;74.19;100106.75;4859467;29;8910;-83
2024/01/20 02:41:31;;;;;;;;;39.25;32.00;;;;;-2.82;75.54;100110.78;4858386;29;8869;-83
2024/01/20 02:44:00;;;;;;;;;33.50;30.00;;;;;-2.71;75.57;100109.53;4860667;29;8893;-84
2024/01/20 02:46:30;;;;;;;;;37.50;35.50;;;;;-2.59;74.31;100110.00;4860546;29;9270;-84
2024/01/20 02:48:58;;;;;;;;;42.75;36.50;;;;;-2.23;72.79;100111.47;4859396;29;8884;-84
2024/01/20 02:51:28;;;;;;;;;34.75;30.75;;;;;-2.14;72.79;100112.69;4828420;29;8861;-84
2024/01/20 02:53:58;;;;;;;;;44.00;37.25;;;;;-2.13;72.57;100119.63;4859727;29;8880;-84
2024/01/20 02:56:29;;;;;;;;;31.50;28.25;;;;;-2.36;72.53;100123.81;4859889;29;8892;-82
2024/01/20 02:58:58;;;;;;;;;37.25;31.00;;;;;-1.97;72.11;100115.94;4845863;29;8991;-83
2024/01/20 03:01:27;;;;;;;;;43.25;37.50;;;;;-1.75;71.29;100120.22;4861859;29;8881;-82
2024/01/20 03:03:56;;;;;;;;;35.25;31.00;;;;;-1.38;71.01;100124.16;4859294;29;8902;-82
2024/01/20 03:06:25;;;;;;;;;33.25;32.25;;;;;-1.63;70.55;100119.81;4859232;29;8889;-82
2024/01/20 03:08:54;;;;;;;;;37.50;32.00;;;;;-1.43;70.49;100128.25;4860118;29;8873;-81
2024/01/20 03:11:23;;;;;;;;;37.25;37.25;;;;;-1.47;69.25;100125.53;4843206;29;8869;-84
2024/01/20 03:13:54;;;;;;;;;33.75;32.75;;;;;-2.40;71.72;100137.38;4873476;29;9054;-83
2024/01/20 03:16:23;;;;;;;;;41.75;34.25;;;;;-2.02;72.01;100135.47;4859806;29;8881;-83
2024/01/20 03:18:51;;;;;;;;;37.50;30.50;;;;;-1.76;70.92;100128.75;4862069;29;9014;-81
2024/01/20 03:21:20;;;;;;;;;28.75;26.00;;;;;-2.28;71.47;100134.44;4869373;29;8877;-82
2024/01/20 03:23:48;;;;;;;;;33.75;31.00;;;;;-2.23;71.48;100143.22;4847870;29;8881;-82
2024/01/20 03:26:17;;;;;;;;;34.40;31.20;;;;;-2.74;73.67;100145.41;4828559;29;8888;-81
2024/01/20 03:28:46;;;;;;;;;39.50;36.50;;;;;-2.42;72.24;100141.59;4860058;29;8939;-82
2024/01/20 03:31:17;;;;;;;;;32.25;31.00;;;;;-2.12;71.70;100136.81;4850274;29;9691;-83
2024/01/20 03:33:45;;;;;;;;;42.75;36.00;;;;;-2.40;72.09;100137.38;4862683;29;8923;-82
2024/01/20 03:36:15;;;;;;;;;40.00;31.25;;;;;-2.46;72.95;100143.16;4875213;29;8885;-80
2024/01/20 03:38:45;;;;;;;;;39.00;36.25;;;;;-2.33;72.31;100125.66;4860506;29;8879;-83
2024/01/20 03:41:14;;;;;;;;;34.50;31.75;;;;;-2.59;73.38;100129.75;4849090;29;8867;-81
2024/01/20 03:43:43;;;;;;;;;39.75;38.75;;;;;-2.37;71.93;100139.22;4859111;29;8883;-81
2024/01/20 03:46:12;;;;;;;;;38.00;29.75;;;;;-2.78;73.23;100144.41;4839607;29;8891;-79
2024/01/20 03:48:42;;;;;;;;;31.25;29.00;;;;;-2.89;73.76;100145.63;4844437;29;8999;-81
2024/01/20 03:51:11;;;;;;;;;32.00;28.00;;;;;-2.99;73.83;100149.50;4843430;29;8994;-83
2024/01/20 03:53:40;;;;;;;;;30.75;28.00;;;;;-2.89;73.83;100156.78;4858566;29;8885;-80
2024/01/20 03:56:09;;;;;;;;;31.75;29.75;;;;;-3.06;74.11;100162.91;4859685;29;8881;-81
2024/01/20 03:58:38;;;;;;;;;36.00;30.50;;;;;-3.19;74.65;100168.31;4857903;29;8981;-80
2024/01/20 04:01:07;;;;;;;;;37.75;31.50;;;;;-3.02;74.81;100172.50;4841303;29;8894;-83
2024/01/20 04:03:36;;;;;;;;;30.75;26.75;;;;;-3.37;75.20;100169.25;4842248;29;8918;-80
2024/01/20 04:06:07;;;;;;;;;38.75;35.75;;;;;-3.21;74.65;100175.94;4841983;29;9633;-82
2024/01/20 04:08:36;;;;;;;;;30.75;27.50;;;;;-3.27;74.87;100173.13;4857818;29;8918;-82
2024/01/20 04:11:06;;;;;;;;;28.00;24.50;;;;;-3.09;75.06;100176.50;4827170;29;8894;-83
2024/01/20 04:13:35;;;;;;;;;30.75;27.25;;;;;-3.10;74.54;100179.88;4847022;29;8889;-79
2024/01/20 04:16:05;;;;;;;;;33.75;29.00;;;;;-3.35;74.99;100190.78;4859213;29;8894;-80
2024/01/20 04:18:33;;;;;;;;;33.25;30.00;;;;;-3.25;75.07;100190.34;4857865;29;8926;-84
2024/01/20 04:21:03;;;;;;;;;29.50;29.50;;;;;-3.24;75.58;100196.41;4856466;29;8898;-80
2024/01/20 04:23:33;;;;;;;;;34.00;30.50;;;;;-3.13;74.55;100199.44;4825455;29;8984;-84
2024/01/20 04:26:02;;;;;;;;;27.50;26.75;;;;;-3.35;75.19;100213.03;4841193;29;9625;-80
2024/01/20 04:28:31;;;;;;;;;22.50;17.75;;;;;-3.35;75.31;100208.75;4826131;29;9013;-82
2024/01/20 04:31:00;;;;;;;;;30.00;28.75;;;;;-3.24;74.68;100219.53;4826248;29;8897;-83
2024/01/20 04:33:30;;;;;;;;;27.50;27.00;;;;;-3.49;75.10;100228.69;4826565;29;8999;-80
2024/01/20 04:35:59;;;;;;;;;32.00;28.00;;;;;-3.63;76.11;100222.00;4841918;29;8884;-79
2024/01/20 04:38:28;;;;;;;;;38.75;32.00;;;;;-3.56;75.79;100231.78;4860334;29;9631;-83
2024/01/20 04:40:58;;;;;;;;;33.25;29.75;;;;;-3.66;75.84;100225.34;4857801;29;8896;-83
2024/01/20 04:43:28;;;;;;;;;36.00;34.50;;;;;-3.76;75.95;100232.53;4857259;29;9723;-81
2024/01/20 04:45:57;;;;;;;;;31.50;24.75;;;;;-3.65;76.10;100228.78;4841932;29;8889;-80
2024/01/20 04:48:26;;;;;;;;;32.75;27.50;;;;;-3.83;76.30;100241.59;4857614;29;9026;-83
2024/01/20 04:50:56;;;;;;;;;23.00;20.50;;;;;-3.76;75.89;100235.97;4857021;29;8873;-80
2024/01/20 04:53:25;;;;;;;;;36.25;32.50;;;;;-3.74;75.91;100239.47;4857123;29;8877;-80
2024/01/20 04:55:54;;;;;;;;;23.50;23.50;;;;;-3.68;75.81;100242.38;4857117;29;8881;-83
2024/01/20 04:58:24;;;;;;;;;36.75;25.75;;;;;-3.79;76.18;100250.34;4840973;29;8973;-81
2024/01/20 05:00:53;;;;;;;;;25.75;25.75;;;;;-3.60;75.79;100244.41;4848195;29;8880;-81
2024/01/20 05:03:22;;;;;;;;;26.00;26.00;;;;;-3.73;75.49;100256.66;4859669;29;8896;-82
2024/01/20 05:05:52;;;;;;;;;29.75;26.25;;;;;-3.93;76.56;100253.13;4865681;29;8920;-80
2024/01/20 05:08:21;;;;;;;;;25.25;23.75;;;;;-4.03;76.75;100253.50;4859000;29;8877;-80
2024/01/20 05:10:50;;;;;;;;;31.00;28.25;;;;;-3.93;76.93;100253.13;4857619;29;8869;-79
2024/01/20 05:13:19;;;;;;;;;30.50;26.00;;;;;-4.03;76.54;100253.50;4858689;29;8956;-82
2024/01/20 05:15:49;;;;;;;;;35.00;30.00;;;;;-4.01;76.92;100266.41;4857228;29;8880;-80
2024/01/20 05:18:18;;;;;;;;;18.60;15.60;;;;;-3.81;75.92;100257.97;4841388;29;9022;-80
2024/01/20 05:20:47;;;;;;;;;28.50;24.25;;;;;-3.69;75.66;100262.84;4823741;29;9033;-80
2024/01/20 05:23:16;;;;;;;;;29.75;29.25;;;;;-3.19;74.41;100260.88;4854240;29;8975;-81
2024/01/20 05:25:46;;;;;;;;;33.25;27.75;;;;;-3.08;73.37;100277.69;4854855;29;8962;-80
2024/01/20 05:28:15;;;;;;;;;39.25;36.75;;;;;-2.94;72.19;100276.63;4866189;29;8908;-81
2024/01/20 05:30:44;;;;;;;;;66.00;53.00;;;;;-2.83;71.71;100277.09;4856767;29;8857;-80
2024/01/20 05:33:14;;;;;;;;;38.50;36.25;;;;;-2.82;72.03;100296.00;4855189;29;8880;-80
2024/01/20 05:35:44;;;;;;;;;71.00;58.75;;;;;-3.23;72.84;100306.13;4839781;29;8857;-80
2024/01/20 05:38:14;;;;;;;;;45.75;41.75;;;;;-2.95;72.80;100303.16;4839995;29;9015;-79
2024/01/20 05:40:43;;;;;;;;;40.25;39.50;;;;;-3.06;72.50;100310.38;4825486;29;8886;-79
2024/01/20 05:43:12;;;;;;;;;28.75;26.25;;;;;-3.36;73.18;100314.94;4819475;29;8890;-81
2024/01/20 05:45:41;;;;;;;;;54.75;44.75;;;;;-3.80;74.77;100313.69;4820730;29;8988;-80
2024/01/20 05:48:10;;;;;;;;;53.50;47.75;;;;;-3.84;75.13;100314.34;4834459;29;8996;-81
2024/01/20 05:50:41;;;;;;;;;57.25;51.25;;;;;-3.92;75.85;100329.38;4835657;29;8886;-77
2024/01/20 05:53:09;;;;;;;;;53.00;47.50;;;;;-3.85;75.35;100327.97;4834072;29;8870;-77
2024/01/20 05:55:38;;;;;;;;;57.25;50.25;;;;;-3.85;75.35;100327.97;4852445;29;8888;-81
2024/01/20 05:58:07;;;;;;;;;52.00;46.75;;;;;-3.56;74.36;100326.88;4839646;29;8992;-78
2024/01/20 06:00:36;;;;;;;;;61.00;49.00;;;;;-3.79;74.45;100332.53;4856301;29;8888;-81
2024/01/20 06:03:05;;;;;;;;;4.00;2.50;;;;;-3.18;72.90;100340.66;4839560;29;8881;-81
2024/01/20 06:05:34;;;;;;;;;31.75;30.25;;;;;-2.91;72.38;100346.22;4839517;29;8853;-81
2024/01/20 06:08:05;;;;;;;;;32.00;29.75;;;;;-2.82;71.47;100344.91;4855702;29;8885;-80
2024/01/20 06:10:34;;;;;;;;;28.00;27.50;;;;;-3.00;71.04;100350.94;4857042;29;8939;-79
2024/01/20 06:13:03;;;;;;;;;27.75;26.75;;;;;-3.29;71.96;100357.28;4854318;29;8886;-81
2024/01/20 06:15:32;;;;;;;;;29.50;27.25;;;;;-2.97;71.54;100363.06;4835595;29;8949;-79
2024/01/20 06:18:01;;;;;;;;;30.25;29.75;;;;;-3.20;71.82;100375.72;4835623;29;8900;-80
2024/01/20 06:20:30;;;;;;;;;26.60;24.80;;;;;-2.86;71.92;100377.31;4835769;29;8896;-78
2024/01/20 06:22:59;;;;;;;;;31.75;30.50;;;;;-2.74;70.79;100375.28;4820280;29;9147;-78
2024/01/20 06:25:29;;;;;;;;;23.25;23.00;;;;;-2.86;70.94;100367.03;4835697;29;8896;-81
2024/01/20 06:27:58;;;;;;;;;26.25;24.75;;;;;-3.24;71.49;100376.38;4835496;29;9000;-81
2024/01/20 06:30:27;;;;;;;;;34.50;24.75;;;;;-2.94;71.37;100378.63;4776323;29;9616;-79
2024/01/20 06:32:56;;;;;;;;;31.50;29.75;;;;;-2.41;70.20;100379.34;4776462;29;8989;-81
2024/01/20 06:35:26;;;;;;;;;34.50;32.75;;;;;-3.42;71.17;100383.19;4836194;29;8892;-80
2024/01/20 06:37:54;;;;;;;;;46.00;39.75;;;;;-3.43;71.93;100390.03;4822731;29;9696;-80
2024/01/20 06:40:23;;;;;;;;;37.67;31.33;;;;;-3.36;72.00;100392.06;4838300;29;8873;-79
2024/01/20 06:42:54;;;;;;;;;43.50;42.50;;;;;-3.63;73.03;100394.19;4828230;29;8909;-79
2024/01/20 06:45:23;;;;;;;;;54.75;49.00;;;;;-3.60;73.22;100399.47;4836800;29;8945;-79
2024/01/20 06:47:51;;;;;;;;;45.75;42.75;;;;;-3.30;71.85;100401.78;4860868;29;8889;-82
2024/01/20 06:50:21;;;;;;;;;46.25;44.50;;;;;-3.22;72.44;100399.56;4845554;29;9012;-80
2024/01/20 06:52:50;;;;;;;;;46.75;43.50;;;;;-3.21;71.12;100411.63;4864910;29;8912;-80
2024/01/20 06:55:19;;;;;;;;;50.25;40.25;;;;;-2.91;70.92;100413.09;4860683;29;8857;-82
2024/01/20 06:57:47;;;;;;;;;61.00;50.50;;;;;-3.31;70.98;100426.59;4842779;29;9007;-79
2024/01/20 07:00:18;;;;;;;;;58.50;52.25;;;;;-3.88;72.64;100428.91;4859978;29;8885;-82
2024/01/20 07:02:48;;;;;;;;;50.50;42.00;;;;;-3.71;72.95;100434.03;4858973;29;8963;-79
2024/01/20 07:05:17;;;;;;;;;30.50;27.25;;;;;-3.19;72.03;100428.03;4858834;29;8907;-81
2024/01/20 07:07:47;;;;;;;;;30.75;29.25;;;;;-3.18;71.09;100437.50;4858853;29;8937;-83
2024/01/20 07:10:16;;;;;;;;;40.25;36.75;;;;;-3.38;71.79;100442.53;4857526;29;9004;-79
2024/01/20 07:12:45;;;;;;;;;32.50;30.25;;;;;-3.00;71.42;100440.94;4842614;29;8879;-79
2024/01/20 07:15:14;;;;;;;;;39.50;29.75;;;;;-3.36;71.78;100442.63;4820439;29;8916;-78
2024/01/20 07:17:46;;;;;;;;;38.00;33.25;;;;;-3.71;72.35;100444.31;4821845;29;8939;-78
2024/01/20 07:20:15;;;;;;;;;31.50;31.50;;;;;-4.09;73.69;100454.34;4821776;29;8894;-79
2024/01/20 07:22:44;;;;;;;;;41.75;31.50;;;;;-3.59;73.20;100449.19;4806504;29;8890;-79
2024/01/20 07:25:13;;;;;;;;;41.75;35.50;;;;;-3.59;72.70;100442.34;4821791;29;8905;-82
2024/01/20 07:27:42;;;;;;;;;39.00;35.33;;;;;-3.85;73.23;100448.72;4825025;29;8916;-79
2024/01/20 07:30:11;;;;;;;;;29.00;27.75;;;;;-3.70;71.98;100446.06;4858945;29;8888;-80
2024/01/20 07:32:41;;;;;;;;;40.00;34.50;;;;;-3.81;73.01;100452.31;4861877;29;8980;-78
2024/01/20 07:35:12;;;;;;;;;33.75;30.25;;;;;-3.78;72.59;100458.50;4881221;29;8936;-79
2024/01/20 07:37:41;;;;;;;;;32.00;29.50;;;;;-3.92;72.92;100454.34;4842746;29;8869;-79
2024/01/20 07:40:11;;;;;;;;;29.00;27.25;;;;;-4.07;74.23;100454.44;4859345;29;8955;-81
2024/01/20 07:42:41;;;;;;;;;33.50;29.75;;;;;-3.96;73.93;100463.59;4873297;29;8873;-83
2024/01/20 07:45:10;;;;;;;;;29.75;29.25;;;;;-4.26;74.29;100462.84;4842286;29;9592;-78
2024/01/20 07:47:39;;;;;;;;;34.00;30.25;;;;;-4.23;74.35;100458.72;4861983;29;8876;-78
2024/01/20 07:50:09;;;;;;;;;31.00;31.00;;;;;-4.24;74.63;100462.13;4852882;29;8885;-79
2024/01/20 07:52:39;;;;;;;;;26.00;24.75;;;;;-4.23;74.29;100470.69;4847199;29;8889;-79
2024/01/20 07:55:09;;;;;;;;;42.00;30.75;;;;;-4.05;73.98;100468.22;4843309;29;8892;-80
2024/01/20 07:57:38;;;;;;;;;28.25;25.75;;;;;-4.23;73.53;100463.88;4860129;29;8905;-80
2024/01/20 08:00:10;;;;;;;;;22.50;18.75;;;;;-4.42;74.24;100471.38;4873225;29;8865;-82
2024/01/20 08:02:40;;;;;;;;;30.25;24.75;;;;;-4.56;74.94;100469.75;4873611;29;8923;-78
2024/01/20 08:05:09;;;;;;;;;27.75;26.25;;;;;-4.72;75.68;100475.72;4842964;29;8861;-80
2024/01/20 08:07:39;;;;;;;;;33.00;28.25;;;;;-4.72;75.84;100468.03;4859401;29;8885;-81
2024/01/20 08:10:09;;;;;;;;;35.50;32.75;;;;;-4.94;76.66;100469.41;4858961;29;8884;-80
2024/01/20 08:12:38;;;;;;;;;28.00;24.50;;;;;-4.87;76.67;100465.47;4859161;29;9022;-79
2024/01/20 08:15:09;;;;;;;;;31.75;29.00;;;;;-4.95;76.44;100477.00;4843650;29;8888;-77
2024/01/20 08:17:38;;;;;;;;;26.00;24.50;;;;;-4.94;76.11;100482.22;4845184;29;8940;-80
2024/01/20 08:20:11;;;;;;;;;31.25;27.25;;;;;-4.75;75.54;100484.13;4878126;29;8952;-81
2024/01/20 08:22:41;;;;;;;;;39.75;34.75;;;;;-4.68;75.04;100487.91;4845538;29;9011;-79
2024/01/20 08:25:13;;;;;;;;;37.25;33.25;;;;;-4.87;75.77;100489.47;4827559;29;8872;-82
2024/01/20 08:27:41;;;;;;;;;35.00;31.50;;;;;-5.00;75.67;100497.25;4842195;29;9655;-81
2024/01/20 08:30:12;;;;;;;;;28.25;28.00;;;;;-4.87;75.25;100506.50;4873135;29;8877;-79
2024/01/20 08:32:41;;;;;;;;;24.75;22.50;;;;;-5.10;75.54;100507.78;4826141;29;8946;-79
2024/01/20 08:35:12;;;;;;;;;18.25;13.50;;;;;-4.93;75.19;100507.03;4844048;29;8876;-80
2024/01/20 08:37:42;;;;;;;;;32.75;31.25;;;;;-5.14;75.72;100505.81;4870106;29;8904;-79
2024/01/20 08:40:12;;;;;;;;;30.50;29.75;;;;;-5.20;76.18;100509.78;4849275;29;8896;-82
2024/01/20 08:42:40;;;;;;;;;28.25;27.50;;;;;-5.20;76.39;100514.03;4859022;29;8979;-79
2024/01/20 08:45:10;;;;;;;;;31.00;30.00;;;;;-5.02;75.10;100514.22;4867113;29;8849;-80
2024/01/20 08:47:39;;;;;;;;;33.00;32.50;;;;;-4.95;75.29;100513.78;4851440;29;8897;-80
2024/01/20 08:50:09;;;;;;;;;40.00;36.75;;;;;-4.73;74.90;100521.00;4863105;29;8873;-82
2024/01/20 08:52:39;;;;;;;;;35.75;33.00;;;;;-4.40;73.45;100522.81;4858051;29;8892;-83
2024/01/20 08:55:10;;;;;;;;;39.50;32.00;;;;;-4.12;71.82;100532.91;4875571;29;8856;-81
2024/01/20 08:57:39;;;;;;;;;36.25;32.50;;;;;-4.14;71.87;100526.78;4875656;29;8922;-81
2024/01/20 09:00:11;;;;;;;;;32.50;29.75;;;;;-4.43;72.89;100536.34;4844959;29;8871;-80
2024/01/20 09:02:40;;;;;;;;;33.50;31.75;;;;;-4.26;72.35;100535.59;4875837;29;8929;-80
2024/01/20 09:05:10;;;;;;;;;36.25;31.25;;;;;-4.84;73.05;100540.03;4859732;29;8973;-81
2024/01/20 09:07:41;;;;;;;;;37.00;31.50;;;;;-4.75;73.89;100532.00;4859110;29;8899;-83
2024/01/20 09:10:12;;;;;;;;;48.25;42.50;;;;;-5.27;74.84;100532.41;4858666;29;8876;-80
2024/01/20 09:12:40;;;;;;;;;35.75;33.00;;;;;-5.16;74.99;100549.31;4858591;29;8880;-80
2024/01/20 09:15:10;;;;;;;;;36.25;35.75;;;;;-5.06;74.49;100551.63;4830075;29;8908;-80
2024/01/20 09:17:39;;;;;;;;;37.00;33.75;;;;;-4.91;74.25;100549.03;4832773;29;8865;-81
2024/01/20 09:20:09;;;;;;;;;41.25;39.25;;;;;-5.04;74.73;100554.25;4821532;29;9749;-80
2024/01/20 09:22:38;;;;;;;;;35.25;32.50;;;;;-5.09;74.69;100559.13;4807737;29;8892;-84
2024/01/20 09:25:08;;;;;;;;;39.25;36.50;;;;;-4.89;75.09;100552.56;4837496;29;8890;-79
2024/01/20 09:27:38;;;;;;;;;43.00;38.25;;;;;-4.70;74.67;100557.09;4821242;29;8890;-82
2024/01/20 09:30:08;;;;;;;;;45.50;40.25;;;;;-4.85;74.84;100556.19;4818387;29;8952;-82
2024/01/20 09:32:38;;;;;;;;;43.50;35.00;;;;;-4.78;74.96;100555.75;4810533;29;8904;-79
2024/01/20 09:35:07;;;;;;;;;44.25;40.75;;;;;-4.90;75.30;100549.94;4823660;29;8944;-80
2024/01/20 09:37:37;;;;;;;;;55.50;45.75;;;;;-4.61;74.73;100549.03;4804426;29;8973;-84
2024/01/20 09:40:07;;;;;;;;;53.25;46.75;;;;;-4.76;74.41;100541.34;4802466;29;8984;-81
2024/01/20 09:42:36;;;;;;;;;47.50;41.50;;;;;-4.45;73.95;100538.84;4816597;29;9008;-83
2024/01/20 09:45:08;;;;;;;;;63.75;49.25;;;;;-4.59;73.96;100542.28;4800831;29;9021;-81
2024/01/20 09:47:37;;;;;;;;;50.00;45.25;;;;;-4.46;74.49;100544.75;4785515;29;8874;-80
2024/01/20 09:50:07;;;;;;;;;51.25;45.25;;;;;-4.73;73.81;100545.78;4824578;29;8891;-81
2024/01/20 09:52:51;;;;;;;;;62.00;49.50;;;;;-4.67;73.86;100541.88;4804701;29;9018;-82
2024/01/20 09:55:23;;;;;;;;;53.25;45.00;;;;;-4.38;73.25;100545.16;4803471;29;8907;-80
2024/01/20 09:57:53;;;;;;;;;58.50;49.50;;;;;-4.04;72.84;100552.16;4833317;29;8875;-82
2024/01/20 10:00:26;;;;;;;;;53.50;45.50;;;;;-4.01;72.03;100552.34;4818554;29;8896;-81
2024/01/20 10:02:55;;;;;;;;;53.25;48.00;;;;;-3.78;71.53;100545.84;4833522;29;8868;-81
2024/01/20 10:05:25;;;;;;;;;56.00;45.50;;;;;-3.41;70.51;100547.78;4833719;29;9014;-82
2024/01/20 10:07:54;;;;;;;;;57.00;45.50;;;;;-3.37;69.54;100544.56;4820258;29;8879;-81
2024/01/20 10:10:24;;;;;;;;;61.25;50.75;;;;;-3.71;69.74;100553.09;4837916;29;8906;-79
2024/01/20 10:12:55;;;;;;;;;53.75;46.25;;;;;-3.87;70.68;100551.38;4806944;29;8875;-81
2024/01/20 10:15:26;;;;;;;;;47.25;44.75;;;;;-3.42;70.17;100540.00;4852578;29;8892;-82
2024/01/20 10:18:08;;;;;;;;;64.75;51.25;;;;;-3.59;70.64;100547.69;4856771;29;8918;-80
2024/01/20 10:20:38;;;;;;;;;37.25;29.00;;;;;-3.40;70.87;100551.25;4856993;29;8884;-83
2024/01/20 10:23:11;;;;;;;;;53.25;46.00;;;;;-2.90;69.78;100545.22;4864395;29;9066;-82
2024/01/20 10:25:40;;;;;;;;;53.25;47.75;;;;;-2.30;69.08;100540.34;4850360;29;8877;-80
2024/01/20 10:28:12;;;;;;;;;51.25;42.50;;;;;-2.29;67.23;100543.00;4855396;29;8866;-82
2024/01/20 10:30:42;;;;;;;;;63.00;53.50;;;;;-2.67;67.04;100539.47;4843760;29;8932;-81
2024/01/20 10:33:11;;;;;;;;;54.50;46.25;;;;;-2.67;67.15;100539.47;4858870;29;8901;-82
2024/01/20 10:35:40;;;;;;;;;73.00;59.50;;;;;-2.86;68.33;100540.28;4875340;29;8909;-79
2024/01/20 10:38:14;;;;;;;;;55.50;48.50;;;;;-3.43;69.75;100546.84;4858968;29;8866;-82
2024/01/20 10:40:45;;;;;;;;;68.25;57.00;;;;;-3.46;70.73;100538.94;4843683;29;8890;-82
2024/01/20 10:43:15;;;;;;;;;64.00;53.50;;;;;-3.48;70.19;100540.56;4814265;29;9814;-82
2024/01/20 10:45:55;;;;;;;;;59.75;47.25;;;;;-3.72;68.25;100547.88;4857692;29;8950;-82
2024/01/20 10:48:28;;;;;;;;;55.75;46.50;;;;;-3.33;68.25;100535.34;4860031;29;8878;-84
2024/01/20 10:50:59;;;;;;;;;51.75;45.50;;;;;-3.20;69.11;100537.72;4842794;29;8897;-79
2024/01/20 10:53:29;;;;;;;;;46.00;38.75;;;;;-3.20;69.89;100537.72;4842918;29;8882;-82
2024/01/20 10:55:59;;;;;;;;;30.25;24.00;;;;;-3.29;65.93;100544.97;4843679;29;8902;-81
2024/01/20 10:58:34;;;;;;;;;34.00;30.25;;;;;-3.36;67.05;100541.19;4877857;29;8946;-83
2024/01/20 11:01:05;;;;;;;;;32.00;28.50;;;;;-3.08;66.08;100537.44;4861720;29;8861;-82
2024/01/20 11:03:35;;;;;;;;;45.75;39.50;;;;;-3.47;69.35;100538.06;4828956;29;8922;-86
2024/01/20 11:06:05;;;;;;;;;45.50;40.25;;;;;-3.35;69.45;100539.50;4859657;29;8865;-80
2024/01/20 11:08:34;;;;;;;;;45.25;43.25;;;;;-3.32;73.20;100530.28;4874834;29;8888;-81
2024/01/20 11:11:09;;;;;;;;;48.00;42.75;;;;;-3.42;75.48;100537.44;4859733;29;8905;-81
2024/01/20 11:13:38;;;;;;;;;32.75;32.00;;;;;4.91;52.71;100497.19;4860298;29;8911;-80
2024/01/20 11:16:19;;;;;;;;;54.75;43.25;;;;;-2.26;69.26;100526.81;4850286;29;8960;-79
2024/01/20 11:18:48;;;;;;;;;54.25;45.00;;;;;-2.58;72.69;100526.19;4881554;29;8884;-80
2024/01/20 11:21:19;;;;;;;;;57.25;50.50;;;;;-2.92;74.53;100542.56;4845879;29;8961;-81
2024/01/20 11:23:58;;;;;;;;;55.50;48.50;;;;;-2.98;74.27;100534.50;4843583;29;8907;-80
2024/01/20 11:26:33;;;;;;;;;42.00;37.00;;;;;-3.32;72.05;100542.22;4856903;29;8925;-79
2024/01/20 11:29:04;;;;;;;;;33.50;32.25;;;;;-3.09;72.58;100539.13;4841472;29;8883;-82